메인 페이지
METAR-TAF:

METAR-TAF

공항 :

던디, 스코틀랜드

위도: 56-27N, 경도: 003-01W, 고도: 4m

현재 날씨관측

예보는 38분 전, 08:50시(UTC)에 발표되었습니다.
남서8kt
온도 15°C
습도 77%
기압 1018 hPa
시정 10km 이상
고도 1800ft 상공 구름 조금
고도 3600ft 상공 구름 많음

METAR: EGPN 200850Z 23008KT 9999 FEW018 BKN036 15/11 Q1018

시각: 10:28 (09:28 UTC)

예보

예보는 1 시간 27분 전, 08:01시(UTC)에 발표되었습니다.
예보 대상 시간: 20일 09시부터 20일 18시까지 (UTC)
남서10kt
시정 10km 이상
고도 2000ft 상공 구름 조금
고도 3500ft 상공 구름 보통

TAF: EGPN 200801Z 2009/2018 23010KT 9999 FEW020 SCT035

4,000개 이상의 공항 관측 자료 및 예보 (METAR 및 TAF 보고).

지도상에서 검색 가능한 기상관측소가 노란 점과 빨간 점으로 표시되어 있습니다.

기상관측소 명을 보려면 표시 위로 마우스를 이동하세요.

날씨 관측과 예보를 보려면 클릭하세요.

지도 변경 : 확대하려면 엑스 표시가 있는 녹색 버튼, 축소하려면 빼기 표시가 있는 녹색 버튼, 다음 페이지의 지도를 보려면 녹색 화살표를 클릭하세요.


METAR-TAF: